Time;durP1;ratioP1;P1;durP2;ratioP2;P2;SDS_P1;SDS_P2;PMS_P1;PMS_P2;Temp;Humidity;BMP_temperature;BMP_pressure;BME280_temperature;BME280_humidity;BME280_pressure;Samples;Min_cycle;Max_cycle;Signal;HPM_P1;HPM_P2
2023/12/15 00:00:49;;;;;;;9.03;5.77;;;;;;;0.90;82.82;100868.72;5087300;28;20689;-57
2023/12/15 00:03:18;;;;;;;8.13;6.20;;;;;;;0.88;82.82;100881.31;5087775;28;20241;-58
2023/12/15 00:05:46;;;;;;;8.57;6.77;;;;;;;0.88;83.64;100886.41;5091893;28;20205;-57
2023/12/15 00:08:14;;;;;;;9.40;6.20;;;;;;;0.85;82.48;100891.38;5085193;28;20202;-59
2023/12/15 00:10:42;;;;;;;8.90;5.90;;;;;;;0.86;82.58;100889.69;5081403;28;20261;-57
2023/12/15 00:13:10;;;;;;;8.23;6.03;;;;;;;0.82;82.30;100890.38;5093842;28;20287;-58
2023/12/15 00:15:38;;;;;;;9.43;6.23;;;;;;;0.84;82.00;100897.22;5087342;28;20633;-59
2023/12/15 00:18:06;;;;;;;5.97;4.90;;;;;;;0.82;81.57;100898.84;5074508;28;20205;-57
2023/12/15 00:20:35;;;;;;;5.17;4.53;;;;;;;0.83;80.49;100903.09;5085837;28;20217;-57
2023/12/15 00:23:03;;;;;;;8.13;4.50;;;;;;;0.78;80.30;100909.69;5093794;28;20197;-57
2023/12/15 00:25:31;;;;;;;7.93;4.90;;;;;;;0.77;79.96;100913.00;5091238;28;20227;-58
2023/12/15 00:27:59;;;;;;;5.90;4.80;;;;;;;0.82;80.45;100916.59;5093383;28;20196;-57
2023/12/15 00:30:27;;;;;;;7.57;5.97;;;;;;;0.87;80.56;100926.94;5085971;28;20247;-56
2023/12/15 00:32:55;;;;;;;6.23;5.53;;;;;;;0.89;80.73;100931.28;5090638;28;20201;-57
2023/12/15 00:35:23;;;;;;;7.40;4.87;;;;;;;0.85;81.28;100937.03;5082309;28;20209;-57
2023/12/15 00:37:53;;;;;;;5.63;5.00;;;;;;;0.83;80.76;100933.56;5088516;28;20201;-56
2023/12/15 00:40:22;;;;;;;6.57;4.67;;;;;;;0.79;81.66;100940.97;5089182;28;20661;-59
2023/12/15 00:42:50;;;;;;;5.87;4.60;;;;;;;0.77;82.16;100940.88;5092506;28;20666;-58
2023/12/15 00:45:18;;;;;;;6.63;4.63;;;;;;;0.76;82.14;100936.63;5092279;28;20561;-61
2023/12/15 00:47:46;;;;;;;5.90;4.13;;;;;;;0.70;82.26;100936.34;5082777;28;20204;-57
2023/12/15 00:50:14;;;;;;;6.93;4.60;;;;;;;0.74;82.47;100948.41;5090935;28;20220;-57
2023/12/15 00:52:42;;;;;;;7.13;4.57;;;;;;;0.73;82.02;100949.19;5093326;28;20299;-58
2023/12/15 00:55:11;;;;;;;8.23;4.93;;;;;;;0.71;82.50;100955.88;5092053;28;20808;-56
2023/12/15 00:57:39;;;;;;;7.17;5.43;;;;;;;0.69;82.63;100965.94;5084702;28;20659;-56
2023/12/15 01:00:08;;;;;;;6.77;4.57;;;;;;;0.66;82.17;100968.38;5090399;28;20815;-57
2023/12/15 01:02:36;;;;;;;6.93;5.00;;;;;;;0.62;81.88;100971.53;5083676;28;20209;-58
2023/12/15 01:05:04;;;;;;;7.53;5.17;;;;;;;0.60;82.58;100984.97;5085327;28;20232;-58
2023/12/15 01:07:32;;;;;;;8.30;5.47;;;;;;;0.54;82.12;100979.63;5093468;28;20236;-58
2023/12/15 01:10:01;;;;;;;8.60;5.80;;;;;;;0.50;82.58;100987.91;5091047;28;20217;-57
2023/12/15 01:12:30;;;;;;;8.17;5.80;;;;;;;0.44;82.90;100984.31;5089858;28;20205;-56
2023/12/15 01:14:58;;;;;;;7.80;5.53;;;;;;;0.42;83.45;100985.03;5086795;28;20209;-57
2023/12/15 01:17:26;;;;;;;9.17;5.50;;;;;;;0.39;84.39;100995.03;5087815;28;20239;-58
2023/12/15 01:19:54;;;;;;;9.77;6.27;;;;;;;0.39;84.65;100995.03;5088519;28;20576;-58
2023/12/15 01:22:22;;;;;;;8.77;6.20;;;;;;;0.39;84.67;100995.91;5089191;28;20214;-57
2023/12/15 01:24:50;;;;;;;9.97;6.50;;;;;;;0.40;85.24;101001.81;5093495;28;20204;-58
2023/12/15 01:27:18;;;;;;;9.87;6.40;;;;;;;0.38;85.22;101001.78;5086726;28;20250;-58
2023/12/15 01:29:47;;;;;;;10.20;6.63;;;;;;;0.40;85.16;100999.28;5086104;28;20703;-57
2023/12/15 01:32:15;;;;;;;9.97;6.40;;;;;;;0.42;85.86;100998.56;5083186;28;20201;-57
2023/12/15 01:34:43;;;;;;;10.07;6.67;;;;;;;0.44;85.60;101007.13;5090522;28;20667;-59
2023/12/15 01:37:11;;;;;;;9.20;6.27;;;;;;;0.44;85.63;101009.66;5086486;28;20992;-58
2023/12/15 01:39:38;;;;;;;8.83;6.30;;;;;;;0.42;85.31;101016.31;5088878;28;20197;-58
2023/12/15 01:42:06;;;;;;;9.43;6.57;;;;;;;0.43;85.63;101024.78;5087072;28;20239;-58
2023/12/15 01:44:34;;;;;;;10.27;6.40;;;;;;;0.44;86.34;101035.00;5091012;28;20201;-60
2023/12/15 01:47:04;;;;;;;8.70;6.43;;;;;;;0.41;85.96;101034.88;5088430;28;20231;-58
2023/12/15 01:49:32;;;;;;;8.37;6.20;;;;;;;0.41;86.21;101039.06;5081355;28;20216;-59
2023/12/15 01:52:01;;;;;;;9.30;6.57;;;;;;;0.40;86.27;101040.72;5089655;28;20208;-60
2023/12/15 01:54:28;;;;;;;10.83;6.70;;;;;;;0.40;85.91;101044.91;5085226;28;20289;-60
2023/12/15 01:56:56;;;;;;;9.67;6.33;;;;;;;0.36;86.02;101032.91;5088858;28;20246;-59
2023/12/15 01:59:24;;;;;;;10.83;6.83;;;;;;;0.35;86.69;101037.13;5090422;28;20621;-57
2023/12/15 02:01:52;;;;;;;11.13;6.73;;;;;;;0.37;86.20;101047.31;5083311;28;20208;-58
2023/12/15 02:04:22;;;;;;;10.93;6.47;;;;;;;0.35;86.24;101057.41;5081092;28;20205;-57
2023/12/15 02:06:49;;;;;;;10.97;7.13;;;;;;;0.35;86.23;101056.53;5084562;28;20293;-59
2023/12/15 02:09:17;;;;;;;11.30;6.33;;;;;;;0.35;86.66;101061.59;5090553;28;20197;-58
2023/12/15 02:11:45;;;;;;;9.20;5.87;;;;;;;0.33;86.13;101055.56;5086739;28;20224;-58
2023/12/15 02:14:13;;;;;;;8.33;6.50;;;;;;;0.31;85.49;101058.06;5088111;28;20200;-58
2023/12/15 02:16:41;;;;;;;10.53;6.80;;;;;;;0.36;85.83;101061.66;5091284;28;20205;-58
2023/12/15 02:19:09;;;;;;;9.30;6.40;;;;;;;0.45;86.33;101074.78;5082853;28;20196;-59
2023/12/15 02:21:38;;;;;;;9.67;6.63;;;;;;;0.51;86.22;101073.31;5087709;28;20216;-59
2023/12/15 02:24:08;;;;;;;8.90;5.77;;;;;;;0.55;86.46;101077.72;5087531;28;20205;-58
2023/12/15 02:26:35;;;;;;;10.40;6.73;;;;;;;0.55;85.59;101072.63;5085581;28;20532;-58
2023/12/15 02:29:03;;;;;;;10.40;7.10;;;;;;;0.57;84.99;101076.13;5082516;28;20302;-57
2023/12/15 02:31:31;;;;;;;9.90;6.23;;;;;;;0.59;84.74;101079.59;5082259;28;20604;-59
2023/12/15 02:33:59;;;;;;;9.70;6.03;;;;;;;0.59;85.12;101088.09;5080160;28;20259;-57
2023/12/15 02:36:27;;;;;;;9.70;6.50;;;;;;;0.59;85.50;101089.72;5089933;28;20297;-58
2023/12/15 02:38:55;;;;;;;8.73;5.77;;;;;;;0.59;84.75;101087.19;5084786;28;20647;-61
2023/12/15 02:41:24;;;;;;;8.73;5.90;;;;;;;0.59;84.36;101089.72;5076703;28;20251;-57
2023/12/15 02:43:52;;;;;;;10.10;6.50;;;;;;;0.59;84.57;101092.25;5084911;28;20655;-58
2023/12/15 02:46:20;;;;;;;7.93;5.40;;;;;;;0.60;84.56;101094.03;5085033;28;20279;-57
2023/12/15 02:48:48;;;;;;;9.03;6.03;;;;;;;0.60;84.57;101091.47;5086915;28;20200;-59
2023/12/15 02:51:26;;;;;;;8.80;6.23;;;;;;;0.59;84.23;101094.78;5079263;28;20656;-57
2023/12/15 02:53:54;;;;;;;8.97;6.30;;;;;;;0.60;85.00;101104.16;5086087;28;20203;-61
2023/12/15 02:56:21;;;;;;;9.83;6.33;;;;;;;0.60;84.28;101105.03;5091037;28;20196;-57
2023/12/15 02:58:51;;;;;;;10.20;6.47;;;;;;;0.58;84.51;101109.16;5089348;28;20218;-56
2023/12/15 03:01:19;;;;;;;10.90;6.37;;;;;;;0.59;84.62;101104.94;5077362;28;20710;-57
2023/12/15 03:03:47;;;;;;;9.20;6.30;;;;;;;0.58;84.26;101099.00;5088643;28;20275;-57
2023/12/15 03:06:15;;;;;;;11.43;6.53;;;;;;;0.58;84.38;101104.06;5086388;28;20255;-58
2023/12/15 03:08:43;;;;;;;8.97;6.63;;;;;;;0.59;84.80;101110.00;5090533;28;20230;-59
2023/12/15 03:11:11;;;;;;;10.80;6.87;;;;;;;0.60;85.05;101140.53;5088655;28;20283;-60
2023/12/15 03:13:39;;;;;;;10.63;6.63;;;;;;;0.57;84.34;101136.97;5081149;28;20204;-56
2023/12/15 03:16:11;;;;;;;11.33;7.60;;;;;;;0.53;84.95;101140.19;5085242;28;20204;-57
2023/12/15 03:18:39;;;;;;;11.33;7.43;;;;;;;0.48;85.05;101158.59;5088517;28;20208;-59
2023/12/15 03:21:07;;;;;;;9.97;7.10;;;;;;;0.40;85.29;101141.25;5085710;28;20196;-58
2023/12/15 03:23:35;;;;;;;12.87;7.07;;;;;;;0.39;85.43;101163.22;5088309;28;20660;-58
2023/12/15 03:26:03;;;;;;;9.83;7.03;;;;;;;0.34;84.99;101162.13;5089429;28;20207;-59
2023/12/15 03:28:31;;;;;;;11.03;7.30;;;;;;;0.33;85.50;101162.03;5086025;28;20201;-58
2023/12/15 03:30:59;;;;;;;10.27;7.43;;;;;;;0.31;85.31;101167.06;5077019;28;20206;-58
2023/12/15 03:33:35;;;;;;;10.60;6.40;;;;;;;0.31;85.34;101166.19;5080904;28;20231;-58
2023/12/15 03:36:03;;;;;;;9.90;6.83;;;;;;;0.33;85.74;101177.25;5084809;28;20207;-58
2023/12/15 03:38:32;;;;;;;10.97;7.50;;;;;;;0.32;84.64;101183.13;5090764;28;20204;-58
2023/12/15 03:41:00;;;;;;;11.37;7.03;;;;;;;0.29;84.28;101180.44;5089165;28;20204;-59
2023/12/15 03:43:30;;;;;;;12.40;7.07;;;;;;;0.26;84.27;101186.25;5087676;28;20220;-58
2023/12/15 03:45:58;;;;;;;11.87;6.77;;;;;;;0.26;84.03;101182.81;5087574;28;20197;-58
2023/12/15 03:48:26;;;;;;;11.10;6.90;;;;;;;0.24;84.38;101193.75;5082151;28;20208;-58
2023/12/15 03:50:56;;;;;;;10.53;6.77;;;;;;;0.23;83.65;101191.16;5085964;28;20572;-58
2023/12/15 03:53:24;;;;;;;9.83;6.83;;;;;;;0.22;84.08;101190.31;5085584;28;20565;-58
2023/12/15 03:55:52;;;;;;;10.80;6.43;;;;;;;0.27;84.17;101193.06;5089466;28;20208;-58
2023/12/15 03:58:20;;;;;;;10.23;6.83;;;;;;;0.32;83.85;101201.72;5085546;28;20561;-57
2023/12/15 04:00:48;;;;;;;9.20;6.37;;;;;;;0.35;82.91;101203.56;5085558;28;20235;-60
2023/12/15 04:03:16;;;;;;;9.67;6.60;;;;;;;0.38;83.56;101202.03;5088474;28;20220;-58
2023/12/15 04:05:44;;;;;;;9.00;6.27;;;;;;;0.44;83.64;101207.41;5085366;28;20211;-58
2023/12/15 04:08:13;;;;;;;10.07;7.27;;;;;;;0.49;82.71;101210.16;5086582;28;20261;-57
2023/12/15 04:10:41;;;;;;;9.60;6.60;;;;;;;0.54;83.00;101216.31;5083245;28;20197;-58
2023/12/15 04:13:09;;;;;;;10.90;7.17;;;;;;;0.56;82.12;101216.41;5077842;28;20297;-57
2023/12/15 04:15:38;;;;;;;8.67;6.30;;;;;;;0.56;81.85;101216.41;5087183;28;20204;-58
2023/12/15 04:18:06;;;;;;;8.40;6.30;;;;;;;0.58;81.68;101214.78;5081881;28;20201;-58
2023/12/15 04:20:34;;;;;;;10.13;6.77;;;;;;;0.61;81.42;101217.47;5083618;28;20559;-60
2023/12/15 04:23:02;;;;;;;12.57;6.47;;;;;;;0.61;81.50;101225.09;5089858;28;20671;-58
2023/12/15 04:25:31;;;;;;;10.07;6.63;;;;;;;0.60;81.72;101215.75;5087773;28;20197;-58
2023/12/15 04:27:59;;;;;;;10.03;6.43;;;;;;;0.60;81.66;101226.75;5087821;28;20608;-60
2023/12/15 04:30:27;;;;;;;10.47;7.03;;;;;;;0.62;81.80;101227.69;5093817;28;20274;-61
2023/12/15 04:32:55;;;;;;;11.00;7.17;;;;;;;0.61;81.75;101231.03;5083454;28;20652;-58
2023/12/15 04:35:24;;;;;;;11.47;6.30;;;;;;;0.60;81.76;101238.56;5083958;28;20204;-58
2023/12/15 04:37:52;;;;;;;11.33;7.27;;;;;;;0.63;81.63;101251.41;5091012;28;20426;-58
2023/12/15 04:40:21;;;;;;;12.83;7.77;;;;;;;0.62;81.44;101240.34;5090129;28;20192;-57
2023/12/15 04:42:50;;;;;;;9.73;7.20;;;;;;;0.62;81.47;101242.91;5086712;28;20230;-57
2023/12/15 04:45:18;;;;;;;10.47;7.77;;;;;;;0.64;81.63;101256.53;5088810;28;20239;-59
2023/12/15 04:47:46;;;;;;;12.87;7.70;;;;;;;0.63;81.98;101254.81;5087504;28;20211;-59
2023/12/15 04:50:14;;;;;;;10.97;7.23;;;;;;;0.64;81.55;101256.53;5092083;28;20295;-57
2023/12/15 04:52:42;;;;;;;12.93;7.57;;;;;;;0.64;81.09;101260.75;5089558;28;20208;-62
2023/12/15 04:55:10;;;;;;;10.03;7.17;;;;;;;0.63;80.91;101267.50;5082571;28;20198;-60
2023/12/15 04:57:38;;;;;;;9.80;7.23;;;;;;;0.61;81.85;101258.06;5093108;28;20200;-58
2023/12/15 05:00:09;;;;;;;12.13;7.10;;;;;;;0.63;81.56;101269.16;5089769;28;20621;-63
2023/12/15 05:02:37;;;;;;;9.30;7.03;;;;;;;0.67;82.40;101265.97;5087357;28;20239;-58
2023/12/15 05:05:06;;;;;;;11.93;7.67;;;;;;;0.68;82.10;101266.03;5082531;28;20205;-59
2023/12/15 05:07:35;;;;;;;11.10;7.10;;;;;;;0.69;81.55;101282.13;5088065;28;20200;-56
2023/12/15 05:10:04;;;;;;;11.23;7.27;;;;;;;0.70;81.32;101282.19;5089600;28;20651;-59
2023/12/15 05:12:34;;;;;;;11.70;7.10;;;;;;;0.68;81.41;101277.84;5093018;28;20622;-58
2023/12/15 05:15:02;;;;;;;9.10;6.60;;;;;;;0.68;81.07;101283.78;5083952;28;20639;-58
2023/12/15 05:17:31;;;;;;;12.07;7.43;;;;;;;0.70;80.96;101281.31;5092278;28;20201;-57
2023/12/15 05:20:01;;;;;;;11.07;6.63;;;;;;;0.70;80.72;101287.28;5091952;28;20221;-57
2023/12/15 05:22:30;;;;;;;10.50;6.70;;;;;;;0.72;80.96;101287.34;5082378;28;20224;-58
2023/12/15 05:24:58;;;;;;;11.17;7.03;;;;;;;0.74;81.75;101288.28;5083461;28;20204;-58
2023/12/15 05:27:25;;;;;;;10.23;6.80;;;;;;;0.73;81.60;101294.13;5089222;28;20296;-59
2023/12/15 05:29:53;;;;;;;11.53;7.23;;;;;;;0.73;80.81;101300.06;5089170;28;20239;-57
2023/12/15 05:32:21;;;;;;;11.10;6.90;;;;;;;0.72;80.93;101302.56;5086736;28;20228;-59
2023/12/15 05:34:51;;;;;;;8.90;6.30;;;;;;;0.71;81.27;101300.81;5092849;28;20334;-57
2023/12/15 05:37:20;;;;;;;15.57;8.10;;;;;;;0.71;81.56;101306.75;5085690;28;20249;-58
2023/12/15 05:39:48;;;;;;;13.50;7.63;;;;;;;0.69;80.69;101307.47;5092044;28;20212;-59
2023/12/15 05:42:17;;;;;;;11.97;7.60;;;;;;;0.70;81.00;101311.75;5092159;28;20276;-60
2023/12/15 05:44:45;;;;;;;10.87;7.40;;;;;;;0.71;81.11;101310.97;5082968;28;20752;-60
2023/12/15 05:47:13;;;;;;;11.00;7.90;;;;;;;0.72;81.48;101312.69;5082226;28;20647;-58
2023/12/15 05:49:41;;;;;;;10.73;7.33;;;;;;;0.71;81.73;101308.44;5084529;28;20665;-60
2023/12/15 05:52:11;;;;;;;11.00;7.67;;;;;;;0.70;80.86;101314.28;5078605;28;20239;-58
2023/12/15 05:54:40;;;;;;;12.03;7.60;;;;;;;0.65;81.84;101319.13;5089201;28;20287;-58
2023/12/15 05:57:08;;;;;;;11.87;8.23;;;;;;;0.62;81.56;101324.06;5089174;28;20212;-59
2023/12/15 05:59:41;;;;;;;8.73;6.03;;;;;;;0.57;81.41;101319.56;5089230;28;20250;-59
2023/12/15 06:02:10;;;;;;;14.57;8.37;;;;;;;0.55;80.99;101327.09;5084977;28;20243;-57
2023/12/15 06:04:38;;;;;;;12.80;7.57;;;;;;;0.53;81.70;101333.75;5086474;28;20265;-60
2023/12/15 06:07:06;;;;;;;12.13;7.40;;;;;;;0.51;81.81;101329.41;5083173;28;20749;-60
2023/12/15 06:09:36;;;;;;;12.07;7.87;;;;;;;0.47;81.43;101334.31;5084186;28;20205;-60
2023/12/15 06:12:06;;;;;;;12.87;7.93;;;;;;;0.46;81.43;101332.59;5085667;28;20728;-59
2023/12/15 06:14:36;;;;;;;10.70;7.73;;;;;;;0.47;82.35;101333.44;5077012;28;20206;-56
2023/12/15 06:17:06;;;;;;;13.83;8.47;;;;;;;0.48;81.24;101338.63;5079149;28;20236;-59
2023/12/15 06:19:35;;;;;;;12.67;7.70;;;;;;;0.49;81.77;101336.94;5087973;28;20662;-58
2023/12/15 06:22:03;;;;;;;11.63;7.33;;;;;;;0.54;82.12;101349.84;5088353;28;20598;-56
2023/12/15 06:24:31;;;;;;;11.20;8.10;;;;;;;0.57;82.13;101347.47;5090565;28;20235;-57
2023/12/15 06:27:00;;;;;;;11.37;7.73;;;;;;;0.59;81.42;101359.44;5089587;28;20205;-58
2023/12/15 06:29:28;;;;;;;12.20;7.70;;;;;;;0.65;82.70;101358.84;5083628;28;20232;-58
2023/12/15 06:31:56;;;;;;;11.40;8.00;;;;;;;0.69;82.24;101366.69;5084938;28;20613;-61
2023/12/15 06:34:24;;;;;;;12.90;8.23;;;;;;;0.71;81.29;101369.31;5091114;28;20658;-57
2023/12/15 06:36:52;;;;;;;13.50;8.13;;;;;;;0.72;81.56;101368.50;5084494;28;20208;-58
2023/12/15 06:39:20;;;;;;;9.87;7.23;;;;;;;0.75;81.28;101371.19;5083648;28;20665;-57
2023/12/15 06:41:48;;;;;;;11.27;7.50;;;;;;;0.76;81.92;101372.94;5087447;28;20550;-62
2023/12/15 06:44:18;;;;;;;12.33;8.03;;;;;;;0.81;81.59;101374.06;5086319;28;20253;-58
2023/12/15 06:46:46;;;;;;;11.67;7.83;;;;;;;0.80;80.55;101373.97;5083786;28;20922;-63
2023/12/15 06:49:14;;;;;;;12.80;8.73;;;;;;;0.78;80.47;101384.03;5080759;28;20733;-57
2023/12/15 06:51:46;;;;;;;12.90;8.93;;;;;;;0.74;79.85;101387.22;5083738;28;20656;-57
2023/12/15 06:54:14;;;;;;;14.20;8.77;;;;;;;0.68;80.86;101389.44;5091058;28;20197;-58
2023/12/15 06:56:42;;;;;;;13.70;8.07;;;;;;;0.67;80.83;101390.25;5084584;28;20567;-64
2023/12/15 06:59:10;;;;;;;12.83;8.97;;;;;;;0.66;81.29;101391.91;5084251;28;20204;-61
2023/12/15 07:01:39;;;;;;;13.40;8.17;;;;;;;0.64;81.18;101387.56;5087436;28;20265;-60
2023/12/15 07:04:07;;;;;;;14.37;8.97;;;;;;;0.69;81.11;101391.19;5079964;28;20627;-57
2023/12/15 07:06:37;;;;;;;14.67;9.40;;;;;;;0.70;80.08;101396.34;5085732;28;20210;-57
2023/12/15 07:09:05;;;;;;;18.50;9.30;;;;;;;0.66;80.68;101394.47;5086587;28;20208;-58
2023/12/15 07:11:33;;;;;;;14.03;8.77;;;;;;;0.68;79.86;101402.13;5087937;28;20689;-58
2023/12/15 07:14:02;;;;;;;12.37;7.90;;;;;;;0.69;80.00;101409.81;5090061;28;20212;-56
2023/12/15 07:16:30;;;;;;;14.57;9.00;;;;;;;0.70;79.82;101409.03;5081005;28;20275;-60
2023/12/15 07:18:59;;;;;;;12.60;8.30;;;;;;;0.70;79.23;101418.28;5079713;28;20205;-57
2023/12/15 07:21:27;;;;;;;14.83;9.53;;;;;;;0.70;79.36;101405.59;5082579;28;20655;-60
2023/12/15 07:23:56;;;;;;;16.13;9.33;;;;;;;0.73;79.43;101413.38;5079942;28;20213;-58
2023/12/15 07:26:23;;;;;;;15.07;9.27;;;;;;;0.76;79.88;101415.19;5081679;28;20692;-58
2023/12/15 07:28:52;;;;;;;16.37;9.93;;;;;;;0.73;79.67;101416.78;5084614;28;20642;-57
2023/12/15 07:31:19;;;;;;;11.80;8.10;;;;;;;0.73;79.51;101436.19;5088777;28;20215;-59
2023/12/15 07:33:47;;;;;;;11.50;8.57;;;;;;;0.73;78.96;101426.91;5088758;28;20207;-58
2023/12/15 07:36:17;;;;;;;14.37;8.17;;;;;;;0.76;79.75;101438.03;5089781;28;20570;-60
2023/12/15 07:38:45;;;;;;;16.03;9.30;;;;;;;0.74;79.21;101432.88;5083328;28;20200;-58
2023/12/15 07:41:13;;;;;;;14.70;8.87;;;;;;;0.75;79.51;101433.75;5083261;28;20212;-60
2023/12/15 07:43:41;;;;;;;14.33;8.43;;;;;;;0.72;79.26;101437.00;5089170;28;20208;-57
2023/12/15 07:46:17;;;;;;;13.87;7.93;;;;;;;0.77;79.78;101434.69;5086045;28;20294;-58
2023/12/15 07:48:44;;;;;;;14.80;8.77;;;;;;;0.84;79.90;101440.16;5081113;28;20242;-59
2023/12/15 07:51:18;;;;;;;15.13;9.07;;;;;;;0.82;79.32;101443.41;5085667;28;20204;-57
2023/12/15 07:53:47;;;;;;;16.90;9.50;;;;;;;0.84;79.55;101439.28;5082640;28;20209;-56
2023/12/15 07:56:23;;;;;;;14.10;9.07;;;;;;;0.86;80.06;101446.19;5082351;28;20630;-61
2023/12/15 07:58:51;;;;;;;12.67;8.40;;;;;;;0.86;79.66;101443.63;5081745;28;20200;-61
2023/12/15 08:01:20;;;;;;;13.80;9.33;;;;;;;0.92;80.42;101446.50;5088977;28;20227;-58
2023/12/15 08:03:50;;;;;;;15.43;9.50;;;;;;;0.98;80.57;101456.06;5084805;28;21162;-58
2023/12/15 08:06:19;;;;;;;15.17;10.17;;;;;;;0.95;80.64;101466.91;5091918;28;20612;-59
2023/12/15 08:08:48;;;;;;;15.53;9.80;;;;;;;0.93;81.16;101463.44;5085710;28;20205;-59
2023/12/15 08:11:16;;;;;;;15.97;10.97;;;;;;;0.94;81.62;101470.25;5090652;28;20286;-60
2023/12/15 08:13:44;;;;;;;16.23;10.23;;;;;;;0.90;82.06;101460.75;5088039;28;20201;-59
2023/12/15 08:16:12;;;;;;;17.70;10.37;;;;;;;0.93;82.73;101475.28;5083445;28;20258;-59
2023/12/15 08:18:43;;;;;;;17.83;10.63;;;;;;;0.93;82.39;101481.22;5085137;28;20211;-58
2023/12/15 08:21:11;;;;;;;19.53;11.70;;;;;;;0.86;82.41;101468.16;5084606;28;20205;-57
2023/12/15 08:23:41;;;;;;;18.73;11.47;;;;;;;0.82;83.19;101474.72;5088741;28;20201;-59
2023/12/15 08:26:09;;;;;;;19.60;11.30;;;;;;;0.85;83.99;101474.88;5085278;28;20213;-57
2023/12/15 08:28:37;;;;;;;17.57;11.17;;;;;;;0.79;84.41;101476.25;5084391;28;20198;-59
2023/12/15 08:31:05;;;;;;;18.90;12.07;;;;;;;0.78;85.09;101479.56;5083577;28;20209;-60
2023/12/15 08:33:33;;;;;;;17.43;10.67;;;;;;;0.81;85.21;101489.84;5084899;28;20209;-61
2023/12/15 08:36:02;;;;;;;19.30;11.93;;;;;;;0.82;85.69;101491.63;5086922;28;20213;-56
2023/12/15 08:38:30;;;;;;;19.93;11.73;;;;;;;0.78;86.75;101500.75;5085199;28;20619;-54
2023/12/15 08:41:00;;;;;;;19.73;12.57;;;;;;;0.77;87.67;101501.50;5090197;28;20201;-61
2023/12/15 08:43:28;;;;;;;16.23;12.07;;;;;;;0.79;87.94;101512.63;5088819;28;20232;-56
2023/12/15 08:45:56;;;;;;;20.17;12.37;;;;;;;0.82;88.29;101509.38;5087075;28;20582;-57
2023/12/15 08:48:24;;;;;;;22.37;13.37;;;;;;;0.85;88.24;101504.47;5085092;28;20215;-58
2023/12/15 08:50:53;;;;;;;17.80;11.50;;;;;;;0.91;89.02;101505.63;5087697;28;20659;-60
2023/12/15 08:53:21;;;;;;;18.10;12.13;;;;;;;0.96;89.56;101505.88;5091667;28;20200;-59
2023/12/15 08:55:49;;;;;;;21.53;13.87;;;;;;;0.98;87.92;101499.19;5081655;28;20243;-58
2023/12/15 08:58:21;;;;;;;23.10;14.33;;;;;;;1.01;89.01;101508.66;5084986;28;20242;-58
2023/12/15 09:00:49;;;;;;;22.57;13.10;;;;;;;1.02;88.48;101512.91;5077197;28;20193;-58
2023/12/15 09:03:18;;;;;;;21.10;12.60;;;;;;;1.02;88.96;101507.84;5082613;28;20232;-55
2023/12/15 09:05:46;;;;;;;21.10;14.77;;;;;;;0.99;87.32;101523.78;5084532;28;20209;-54
2023/12/15 09:08:34;;;;;;;21.97;13.83;;;;;;;0.93;88.42;101529.44;5090227;28;20220;-56
2023/12/15 09:11:03;;;;;;;23.60;14.77;;;;;;;0.99;88.88;101539.00;5091989;28;20204;-54
2023/12/15 09:13:32;;;;;;;27.23;15.00;;;;;;;1.06;88.74;101535.13;5085354;28;20565;-55
2023/12/15 09:16:00;;;;;;;22.20;14.87;;;;;;;1.10;88.33;101539.56;5087723;28;20192;-55
2023/12/15 09:18:28;;;;;;;23.27;14.10;;;;;;;1.23;88.99;101546.13;5088533;28;20261;-57
2023/12/15 09:20:56;;;;;;;23.63;13.53;;;;;;;1.32;88.07;101539.84;5083876;28;20204;-57
2023/12/15 09:23:24;;;;;;;26.37;14.70;;;;;;;1.39;87.17;101546.97;5085435;28;20201;-54
2023/12/15 09:25:53;;;;;;;27.47;14.50;;;;;;;1.35;87.41;101555.22;5089426;28;20559;-52
2023/12/15 09:28:21;;;;;;;21.63;13.50;;;;;;;1.34;87.49;101562.78;5087780;28;20205;-54
2023/12/15 09:30:51;;;;;;;23.60;14.10;;;;;;;1.38;87.78;101568.09;5084141;28;20205;-55
2023/12/15 09:33:19;;;;;;;22.80;13.70;;;;;;;1.43;87.81;101568.31;5091089;28;20209;-56
2023/12/15 09:35:47;;;;;;;25.27;13.83;;;;;;;1.43;87.90;101564.09;5091951;28;20207;-60
2023/12/15 09:38:16;;;;;;;23.37;14.00;;;;;;;1.42;86.80;101567.44;5087640;28;20200;-56
2023/12/15 09:40:45;;;;;;;22.17;13.63;;;;;;;1.28;87.07;101563.34;5085151;28;20229;-60
2023/12/15 09:43:13;;;;;;;24.67;15.10;;;;;;;1.29;87.75;101569.28;5087544;28;20200;-54
2023/12/15 09:45:41;;;;;;;22.97;14.50;;;;;;;1.31;87.54;101562.63;5087981;28;20213;-57
2023/12/15 09:48:11;;;;;;;23.03;15.57;;;;;;;1.34;87.05;101563.66;5087319;28;20261;-52
2023/12/15 09:50:44;;;;;;;27.73;15.27;;;;;;;1.35;87.28;101560.31;5091836;28;20292;-54
2023/12/15 09:53:12;;;;;;;25.07;14.63;;;;;;;1.45;87.03;101561.66;5088759;28;20197;-55
2023/12/15 09:55:40;;;;;;;20.47;13.77;;;;;;;1.53;87.30;101552.72;5089573;28;20189;-55
2023/12/15 09:58:09;;;;;;;23.30;13.63;;;;;;;1.54;86.64;101556.13;5087551;28;20543;-53
2023/12/15 10:00:37;;;;;;;22.73;15.17;;;;;;;1.56;86.81;101554.56;5080774;28;20202;-54
2023/12/15 10:03:05;;;;;;;25.40;14.53;;;;;;;1.53;86.96;101549.31;5088781;28;20204;-57
2023/12/15 10:05:35;;;;;;;25.50;14.93;;;;;;;1.48;86.20;101549.09;5087017;28;20217;-57
2023/12/15 10:08:03;;;;;;;22.33;14.10;;;;;;;1.52;86.78;101557.75;5085684;28;20651;-55
2023/12/15 10:10:32;;;;;;;23.73;15.37;;;;;;;1.57;86.70;101561.38;5085623;28;20201;-56
2023/12/15 10:13:00;;;;;;;23.53;14.33;;;;;;;1.58;87.20;101569.06;5083989;28;20653;-57
2023/12/15 10:15:28;;;;;;;22.67;15.03;;;;;;;1.62;87.85;101582.78;5086391;28;20284;-53
2023/12/15 10:17:58;;;;;;;26.00;15.60;;;;;;;1.60;87.56;101566.63;5088061;28;20257;-59
2023/12/15 10:20:30;;;;;;;22.50;15.40;;;;;;;1.61;88.04;101576.84;5091438;28;20229;-56
2023/12/15 10:23:03;;;;;;;26.83;15.93;;;;;;;1.57;86.75;101569.00;5087218;28;20205;-57
2023/12/15 10:25:32;;;;;;;26.67;16.10;;;;;;;1.55;87.46;101556.22;5084158;28;20221;-59
2023/12/15 10:28:01;;;;;;;25.97;16.33;;;;;;;1.53;87.25;101551.88;5088191;28;20216;-56
2023/12/15 10:30:30;;;;;;;27.97;17.07;;;;;;;1.55;87.21;101575.69;5085565;28;20232;-57
2023/12/15 10:32:59;;;;;;;27.77;16.50;;;;;;;1.54;87.94;101577.31;5084307;28;20667;-58
2023/12/15 10:35:29;;;;;;;25.87;15.37;;;;;;;1.56;88.03;101585.91;5087534;28;20568;-56
2023/12/15 10:37:58;;;;;;;24.70;15.30;;;;;;;1.58;87.16;101581.75;5088258;28;20213;-62
2023/12/15 10:40:28;;;;;;;25.13;14.93;;;;;;;1.58;87.10;101585.97;5085319;28;20655;-56
2023/12/15 10:42:57;;;;;;;23.73;15.83;;;;;;;1.59;87.07;101577.59;5091219;28;20648;-55
2023/12/15 10:45:28;;;;;;;26.60;16.30;;;;;;;1.57;87.54;101579.16;5090936;28;20254;-61
2023/12/15 10:47:58;;;;;;;23.20;16.00;;;;;;;1.57;87.59;101584.25;5090975;28;20201;-57
2023/12/15 10:50:28;;;;;;;25.37;15.47;;;;;;;1.56;87.08;101580.84;5087074;28;20196;-57
2023/12/15 10:52:57;;;;;;;24.43;15.50;;;;;;;1.59;87.26;101590.28;5085551;28;20285;-58
2023/12/15 10:55:28;;;;;;;23.57;15.20;;;;;;;1.62;87.31;101578.59;5075646;28;20209;-54
2023/12/15 10:58:00;;;;;;;24.47;16.00;;;;;;;1.60;86.02;101572.56;5086944;28;21040;-55
2023/12/15 11:00:31;;;;;;;22.30;15.07;;;;;;;1.59;86.96;101572.50;5091528;28;20261;-55
2023/12/15 11:03:01;;;;;;;24.03;15.07;;;;;;;1.63;87.09;101569.31;5091440;28;20319;-57
2023/12/15 11:05:32;;;;;;;24.63;15.20;;;;;;;1.62;86.26;101558.28;5087949;28;20212;-58
2023/12/15 11:08:07;;;;;;;22.67;14.80;;;;;;;1.63;87.02;101546.44;5080436;28;20193;-60
2023/12/15 11:10:36;;;;;;;29.70;17.57;;;;;;;1.65;86.11;101539.75;5089504;28;20210;-58
2023/12/15 11:13:42;;;;;;;25.77;15.87;;;;;;;1.57;85.60;101553.75;5089707;28;20727;-55
2023/12/15 11:16:11;;;;;;;25.20;15.67;;;;;;;1.62;86.59;101568.44;5087465;28;20573;-56
2023/12/15 11:18:40;;;;;;;24.80;15.60;;;;;;;1.62;86.13;101565.00;5089745;28;20212;-55
2023/12/15 11:21:10;;;;;;;24.30;15.37;;;;;;;1.67;85.90;101572.06;5087051;28;20228;-60
2023/12/15 11:23:50;;;;;;;24.57;15.17;;;;;;;1.73;85.93;101581.66;5089004;28;20275;-59
2023/12/15 11:26:22;;;;;;;27.90;15.73;;;;;;;1.77;85.97;101585.19;5087106;28;20238;-61
2023/12/15 11:28:51;;;;;;;24.67;14.80;;;;;;;1.82;86.54;101589.72;5082147;28;20232;-59
2023/12/15 11:31:24;;;;;;;25.70;15.47;;;;;;;1.84;86.17;101603.41;5090237;28;20288;-56